createdAt,value
2018-11-11T00:00:50.783Z,0.00
2018-11-11T00:01:51.009Z,0.00
2018-11-11T00:02:51.228Z,0.00
2018-11-11T00:03:51.452Z,0.00
2018-11-11T00:04:51.679Z,0.00
2018-11-11T00:05:51.909Z,0.00
2018-11-11T00:06:52.129Z,0.00
2018-11-11T00:07:52.359Z,0.00
2018-11-11T00:08:52.586Z,0.00
2018-11-11T00:09:52.808Z,0.00
2018-11-11T00:10:53.033Z,0.00
2018-11-11T00:11:53.257Z,0.00
2018-11-11T00:12:53.484Z,0.00
2018-11-11T00:13:53.716Z,0.00
2018-11-11T00:14:53.942Z,0.00
2018-11-11T00:15:54.165Z,0.00
2018-11-11T00:16:54.398Z,0.00
2018-11-11T00:17:54.612Z,0.00
2018-11-11T00:18:54.853Z,0.00
2018-11-11T00:19:55.066Z,0.00
2018-11-11T00:20:55.284Z,0.00
2018-11-11T00:21:55.634Z,0.00
2018-11-11T00:22:55.737Z,0.00
2018-11-11T00:23:55.960Z,0.00
2018-11-11T00:24:56.193Z,0.00
2018-11-11T00:25:56.414Z,0.00
2018-11-11T00:26:56.640Z,0.00
2018-11-11T00:27:56.868Z,0.00
2018-11-11T00:28:57.098Z,0.00
2018-11-11T00:29:57.322Z,0.00
2018-11-11T00:30:57.555Z,0.00
2018-11-11T00:31:57.778Z,0.00
2018-11-11T00:32:58.006Z,0.00
2018-11-11T00:33:58.228Z,0.00
2018-11-11T00:34:58.454Z,0.00
2018-11-11T00:35:58.701Z,0.00
2018-11-11T00:36:58.908Z,0.00
2018-11-11T00:37:59.144Z,0.00
2018-11-11T00:38:59.362Z,0.00
2018-11-11T00:39:59.591Z,0.00
2018-11-11T00:40:59.833Z,0.00
2018-11-11T00:42:00.061Z,0.00
2018-11-11T00:43:00.402Z,0.00
2018-11-11T00:44:00.578Z,0.00
2018-11-11T00:45:00.807Z,0.00
2018-11-11T00:46:01.035Z,0.00
2018-11-11T00:47:01.257Z,0.00
2018-11-11T00:48:01.482Z,0.00
2018-11-11T00:49:01.712Z,0.00
2018-11-11T00:50:01.930Z,0.00
2018-11-11T00:51:02.155Z,0.00
2018-11-11T00:52:02.383Z,0.00
2018-11-11T00:53:02.609Z,0.00
2018-11-11T00:54:02.836Z,0.00
2018-11-11T00:55:03.066Z,0.00
2018-11-11T00:56:03.288Z,0.00
2018-11-11T00:57:03.522Z,0.00
2018-11-11T00:58:03.766Z,0.00
2018-11-11T00:59:03.980Z,0.00
2018-11-11T01:00:04.207Z,0.00
2018-11-11T01:01:04.429Z,0.00
2018-11-11T01:02:04.657Z,0.00
2018-11-11T01:03:04.886Z,0.00
2018-11-11T01:04:05.109Z,0.00
2018-11-11T01:05:05.332Z,0.00
2018-11-11T01:06:05.563Z,0.00
2018-11-11T01:07:05.784Z,0.00
2018-11-11T01:08:06.011Z,0.00
2018-11-11T01:09:06.234Z,0.00
2018-11-11T01:10:06.455Z,0.00
2018-11-11T01:11:06.680Z,0.00
2018-11-11T01:12:06.967Z,0.00
2018-11-11T01:13:07.134Z,0.00
2018-11-11T01:14:07.359Z,0.00
2018-11-11T01:15:07.584Z,0.00
2018-11-11T01:16:07.810Z,0.00
2018-11-11T01:17:08.039Z,0.00
2018-11-11T01:18:08.266Z,0.00
2018-11-11T01:19:08.494Z,0.00
2018-11-11T01:20:08.717Z,0.00
2018-11-11T01:21:08.955Z,0.00
2018-11-11T01:22:09.168Z,0.00
2018-11-11T01:23:09.396Z,0.00
2018-11-11T01:24:09.620Z,0.00
2018-11-11T01:25:09.846Z,0.00
2018-11-11T01:26:10.072Z,0.00
2018-11-11T01:27:10.297Z,0.00
2018-11-11T01:28:10.524Z,0.00
2018-11-11T01:29:10.750Z,0.00
2018-11-11T01:30:10.979Z,0.00
2018-11-11T01:31:11.203Z,0.00
2018-11-11T01:32:11.431Z,0.00
2018-11-11T01:33:11.651Z,0.00
2018-11-11T01:34:11.883Z,0.00
2018-11-11T01:35:12.106Z,0.00
2018-11-11T01:36:12.332Z,0.00
2018-11-11T01:37:12.595Z,0.00
2018-11-11T01:38:12.777Z,0.00
2018-11-11T01:39:13.003Z,0.00
2018-11-11T01:40:13.229Z,0.00
2018-11-11T01:41:13.453Z,0.00
2018-11-11T01:42:13.679Z,0.00
2018-11-11T01:43:13.906Z,0.00
2018-11-11T01:44:14.130Z,0.00
2018-11-11T01:45:14.360Z,0.00
2018-11-11T01:46:14.588Z,0.00
2018-11-11T01:47:14.809Z,0.00
2018-11-11T01:48:15.035Z,0.00
2018-11-11T01:49:15.259Z,0.00
2018-11-11T01:50:15.488Z,0.00
2018-11-11T01:51:15.710Z,0.00
2018-11-11T01:52:15.937Z,0.00
2018-11-11T01:53:16.163Z,0.00
2018-11-11T01:54:16.392Z,0.00
2018-11-11T01:55:16.615Z,0.00
2018-11-11T01:56:16.839Z,0.00
2018-11-11T01:57:17.064Z,0.00
2018-11-11T01:58:17.295Z,0.00
2018-11-11T01:59:17.517Z,0.00
2018-11-11T02:00:17.741Z,0.00
2018-11-11T02:01:17.964Z,0.00
2018-11-11T02:02:18.188Z,0.00
2018-11-11T02:03:18.414Z,0.00
2018-11-11T02:04:18.649Z,0.00
2018-11-11T02:05:18.863Z,0.00
2018-11-11T02:06:19.090Z,0.00
2018-11-11T02:07:19.313Z,0.00
2018-11-11T02:08:19.554Z,0.00
2018-11-11T02:09:19.762Z,0.00
2018-11-11T02:10:19.992Z,0.00
2018-11-11T02:11:20.210Z,0.00
2018-11-11T02:12:20.442Z,0.00
2018-11-11T02:13:20.660Z,0.00
2018-11-11T02:14:20.889Z,0.00
2018-11-11T02:15:21.120Z,0.00
2018-11-11T02:16:21.341Z,0.00
2018-11-11T02:17:21.566Z,0.00
2018-11-11T02:18:21.794Z,0.00
2018-11-11T02:19:22.011Z,0.00
2018-11-11T02:20:22.243Z,0.00
2018-11-11T02:21:22.461Z,0.00
2018-11-11T02:22:22.685Z,0.00
2018-11-11T02:23:22.900Z,0.00
2018-11-11T02:24:23.133Z,0.00
2018-11-11T02:25:23.357Z,0.00
2018-11-11T02:26:23.584Z,0.00
2018-11-11T02:27:23.808Z,0.00
2018-11-11T02:28:24.035Z,0.00
2018-11-11T02:29:24.263Z,0.00
2018-11-11T02:30:24.485Z,0.00
2018-11-11T02:31:24.710Z,0.00
2018-11-11T02:32:24.935Z,0.00
2018-11-11T02:33:25.164Z,0.00
2018-11-11T02:34:25.386Z,0.00
2018-11-11T02:35:25.612Z,0.00
2018-11-11T02:36:25.836Z,0.00
2018-11-11T02:37:26.082Z,0.00
2018-11-11T02:38:26.295Z,0.00
2018-11-11T02:39:26.510Z,0.00
2018-11-11T02:40:26.737Z,0.00
2018-11-11T02:41:26.965Z,0.00
2018-11-11T02:42:27.185Z,0.00
2018-11-11T02:43:27.411Z,0.00
2018-11-11T02:44:27.634Z,0.00
2018-11-11T02:45:27.856Z,0.00
2018-11-11T02:46:28.082Z,0.00
2018-11-11T02:47:28.311Z,0.00
2018-11-11T02:48:28.536Z,0.00
2018-11-11T02:49:28.760Z,0.00
2018-11-11T02:50:28.987Z,0.00
2018-11-11T02:51:29.210Z,0.00
2018-11-11T02:52:29.437Z,0.00
2018-11-11T02:53:29.663Z,0.00
2018-11-11T02:54:29.885Z,0.00
2018-11-11T02:55:30.111Z,0.00
2018-11-11T02:56:30.339Z,0.00
2018-11-11T02:57:30.565Z,0.00
2018-11-11T02:58:30.792Z,0.00
2018-11-11T02:59:31.021Z,0.00
2018-11-11T03:00:31.244Z,0.00
2018-11-11T03:01:31.468Z,0.00
2018-11-11T03:02:31.693Z,0.00
2018-11-11T03:03:31.919Z,0.00
2018-11-11T03:04:32.245Z,0.00
2018-11-11T03:05:32.366Z,0.00
2018-11-11T03:06:32.591Z,0.00
2018-11-11T03:07:32.817Z,0.00
2018-11-11T03:08:33.040Z,0.00
2018-11-11T03:09:33.259Z,0.00
2018-11-11T03:10:33.503Z,0.00
2018-11-11T03:11:33.721Z,0.00
2018-11-11T03:12:33.940Z,0.00
2018-11-11T03:13:34.173Z,0.00
2018-11-11T03:14:34.401Z,0.00
2018-11-11T03:15:34.625Z,0.00
2018-11-11T03:16:34.850Z,0.00
2018-11-11T03:17:35.078Z,0.00
2018-11-11T03:18:35.301Z,0.00
2018-11-11T03:19:35.530Z,0.00
2018-11-11T03:20:35.763Z,0.00
2018-11-11T03:21:35.978Z,0.00
2018-11-11T03:22:36.205Z,0.00
2018-11-11T03:23:36.432Z,0.00
2018-11-11T03:24:36.657Z,0.00
2018-11-11T03:25:36.882Z,0.00
2018-11-11T03:26:37.103Z,0.00
2018-11-11T03:27:37.332Z,0.00
2018-11-11T03:28:37.555Z,0.00
2018-11-11T03:29:37.780Z,0.00
2018-11-11T03:30:38.006Z,0.00
2018-11-11T03:31:38.232Z,0.00
2018-11-11T03:32:38.457Z,0.00
2018-11-11T03:33:38.685Z,0.00
2018-11-11T03:34:38.911Z,0.00
2018-11-11T03:35:39.136Z,0.00
2018-11-11T03:36:39.356Z,0.00
2018-11-11T03:37:39.584Z,0.00
2018-11-11T03:38:39.816Z,0.00
2018-11-11T03:39:40.038Z,0.00
2018-11-11T03:40:40.263Z,0.00
2018-11-11T03:41:40.486Z,0.00
2018-11-11T03:42:40.714Z,0.00
2018-11-11T03:43:40.934Z,0.00
2018-11-11T03:44:41.167Z,0.00
2018-11-11T03:45:41.390Z,0.00
2018-11-11T03:46:41.618Z,0.00
2018-11-11T03:47:41.837Z,0.00
2018-11-11T03:48:42.064Z,0.00
2018-11-11T03:49:42.290Z,0.00
2018-11-11T03:50:42.514Z,0.00
2018-11-11T03:51:42.742Z,0.00
2018-11-11T03:52:42.968Z,0.00
2018-11-11T03:53:43.190Z,0.00
2018-11-11T03:54:43.416Z,0.00
2018-11-11T03:55:43.645Z,0.00
2018-11-11T03:56:43.865Z,0.00
2018-11-11T03:57:44.097Z,0.00
2018-11-11T03:58:44.441Z,0.00
2018-11-11T03:59:44.539Z,0.00
2018-11-11T04:00:44.761Z,0.00
2018-11-11T04:01:44.989Z,0.00
2018-11-11T04:02:45.212Z,0.00
2018-11-11T04:03:45.441Z,0.00
2018-11-11T04:04:45.664Z,0.00
2018-11-11T04:05:45.882Z,0.00
2018-11-11T04:06:46.107Z,0.00
2018-11-11T04:07:46.336Z,0.00
2018-11-11T04:08:46.559Z,0.00
2018-11-11T04:09:46.800Z,0.00
2018-11-11T04:10:47.009Z,0.00
2018-11-11T04:11:47.236Z,0.00
2018-11-11T04:12:47.466Z,0.00
2018-11-11T04:13:47.687Z,0.00
2018-11-11T04:14:47.909Z,0.00
2018-11-11T04:15:48.134Z,0.00
2018-11-11T04:16:48.362Z,0.00
2018-11-11T04:17:48.590Z,0.00
2018-11-11T04:18:48.810Z,0.00
2018-11-11T04:19:49.035Z,0.00
2018-11-11T04:20:49.261Z,0.00
2018-11-11T04:21:49.488Z,0.00
2018-11-11T04:22:49.717Z,0.00
2018-11-11T04:23:49.936Z,0.00
2018-11-11T04:24:50.161Z,0.00
2018-11-11T04:25:50.381Z,0.00
2018-11-11T04:26:50.603Z,0.00
2018-11-11T04:27:50.877Z,0.00
2018-11-11T04:28:51.059Z,0.00
2018-11-11T04:29:51.281Z,0.00
2018-11-11T04:30:51.511Z,0.00
2018-11-11T04:31:51.729Z,0.00
2018-11-11T04:32:51.954Z,0.00
2018-11-11T04:33:52.183Z,0.00
2018-11-11T04:34:52.408Z,0.00
2018-11-11T04:35:52.630Z,0.00
2018-11-11T04:36:52.863Z,0.00
2018-11-11T04:37:53.097Z,0.00
2018-11-11T04:38:53.313Z,0.00
2018-11-11T04:39:53.526Z,0.00
2018-11-11T04:40:53.750Z,0.00
2018-11-11T04:41:53.972Z,0.00
2018-11-11T04:42:54.195Z,0.00
2018-11-11T04:43:54.420Z,0.00
2018-11-11T04:44:54.647Z,0.00
2018-11-11T04:45:54.869Z,0.00
2018-11-11T04:46:55.095Z,0.00
2018-11-11T04:47:55.314Z,0.00
2018-11-11T04:48:55.546Z,0.00
2018-11-11T04:49:55.771Z,0.00
2018-11-11T04:50:55.993Z,0.00
2018-11-11T04:51:56.222Z,0.00
2018-11-11T04:52:56.441Z,0.00
2018-11-11T04:53:56.662Z,0.00
2018-11-11T04:54:56.890Z,0.00
2018-11-11T04:55:57.116Z,0.00
2018-11-11T04:56:57.342Z,0.00
2018-11-11T04:57:57.565Z,0.00
2018-11-11T04:58:57.795Z,0.00
2018-11-11T04:59:58.022Z,0.00
2018-11-11T05:00:58.243Z,0.00
2018-11-11T05:01:58.470Z,0.00
2018-11-11T05:02:58.696Z,0.00
2018-11-11T05:03:58.919Z,0.00
2018-11-11T05:04:59.143Z,0.00
2018-11-11T05:05:59.371Z,0.00
2018-11-11T05:06:59.594Z,0.00
2018-11-11T05:07:59.820Z,0.00
2018-11-11T05:09:00.046Z,0.00
2018-11-11T05:10:00.271Z,0.00
2018-11-11T05:11:00.499Z,0.00
2018-11-11T05:12:00.716Z,0.00
2018-11-11T05:13:00.940Z,0.00
2018-11-11T05:14:01.165Z,0.00
2018-11-11T05:15:01.391Z,0.00
2018-11-11T05:16:01.614Z,0.00
2018-11-11T05:17:01.838Z,0.00
2018-11-11T05:18:02.060Z,0.00
2018-11-11T05:19:02.284Z,0.00
2018-11-11T05:20:02.520Z,0.00
2018-11-11T05:21:02.735Z,0.00
2018-11-11T05:22:03.051Z,0.00
2018-11-11T05:23:03.185Z,0.00
2018-11-11T05:24:03.413Z,0.00
2018-11-11T05:25:03.638Z,0.00
2018-11-11T05:26:03.863Z,0.00
2018-11-11T05:27:04.088Z,0.00
2018-11-11T05:28:04.320Z,0.00
2018-11-11T05:29:04.535Z,0.00
2018-11-11T05:30:04.779Z,0.00
2018-11-11T05:31:04.991Z,0.00
2018-11-11T05:32:05.210Z,0.00
2018-11-11T05:33:05.441Z,0.00
2018-11-11T05:34:05.663Z,0.00
2018-11-11T05:35:05.890Z,0.00
2018-11-11T05:36:06.119Z,0.00
2018-11-11T05:37:06.343Z,0.00
2018-11-11T05:38:06.574Z,0.00
2018-11-11T05:39:06.796Z,0.00
2018-11-11T05:40:07.023Z,0.00
2018-11-11T05:41:07.246Z,0.00
2018-11-11T05:42:07.470Z,0.00
2018-11-11T05:43:07.696Z,0.00
2018-11-11T05:44:07.919Z,0.00
2018-11-11T05:45:08.148Z,0.00
2018-11-11T05:46:08.373Z,0.00
2018-11-11T05:47:08.603Z,0.00
2018-11-11T05:48:08.827Z,0.00
2018-11-11T05:49:09.054Z,0.00
2018-11-11T05:50:09.280Z,0.00
2018-11-11T05:51:09.506Z,0.00
2018-11-11T05:52:09.731Z,0.00
2018-11-11T05:53:09.957Z,0.00
2018-11-11T05:54:10.183Z,0.00
2018-11-11T05:55:10.410Z,0.00
2018-11-11T05:56:10.636Z,0.00
2018-11-11T05:57:10.860Z,0.00
2018-11-11T05:58:11.085Z,0.00
2018-11-11T05:59:11.311Z,0.00
2018-11-11T06:00:11.538Z,0.00
2018-11-11T06:01:11.762Z,0.00
2018-11-11T06:02:11.989Z,4.00
2018-11-11T06:03:12.212Z,0.00
2018-11-11T06:04:12.436Z,4.00
2018-11-11T06:05:12.654Z,4.00
2018-11-11T06:06:12.878Z,4.00
2018-11-11T06:07:13.103Z,4.00
2018-11-11T06:08:13.320Z,4.00
2018-11-11T06:09:13.541Z,4.00
2018-11-11T06:10:13.767Z,4.00
2018-11-11T06:11:13.992Z,4.00
2018-11-11T06:12:14.216Z,8.00
2018-11-11T06:13:14.442Z,8.00
2018-11-11T06:14:14.668Z,8.00
2018-11-11T06:15:14.894Z,12.00
2018-11-11T06:16:15.118Z,16.00
2018-11-11T06:17:15.344Z,12.00
2018-11-11T06:18:15.576Z,12.00
2018-11-11T06:19:15.791Z,16.00
2018-11-11T06:20:16.016Z,16.00
2018-11-11T06:21:16.242Z,20.00
2018-11-11T06:22:16.467Z,20.00
2018-11-11T06:23:16.693Z,24.00
2018-11-11T06:24:16.920Z,32.00
2018-11-11T06:25:17.150Z,36.00
2018-11-11T06:26:17.371Z,48.00
2018-11-11T06:27:17.622Z,56.00
2018-11-11T06:28:17.825Z,72.00
2018-11-11T06:29:18.046Z,92.00
2018-11-11T06:30:18.269Z,104.00
2018-11-11T06:31:18.495Z,116.00
2018-11-11T06:32:18.721Z,136.00
2018-11-11T06:33:18.950Z,148.00
2018-11-11T06:34:19.173Z,164.00
2018-11-11T06:35:19.397Z,176.00
2018-11-11T06:36:19.645Z,208.00
2018-11-11T06:37:19.838Z,268.00
2018-11-11T06:38:20.052Z,312.00
2018-11-11T06:39:20.282Z,340.00
2018-11-11T06:40:20.506Z,360.00
2018-11-11T06:41:20.739Z,400.00
2018-11-11T06:42:20.953Z,416.00
2018-11-11T06:43:21.177Z,424.00
2018-11-11T06:44:21.400Z,476.00
2018-11-11T06:45:21.629Z,468.00
2018-11-11T06:46:21.855Z,496.00
2018-11-11T06:47:22.080Z,468.00
2018-11-11T06:48:22.307Z,428.00
2018-11-11T06:49:22.530Z,424.00
2018-11-11T06:50:22.751Z,404.00
2018-11-11T06:51:22.977Z,424.00
2018-11-11T06:52:23.204Z,452.00
2018-11-11T06:53:23.425Z,468.00
2018-11-11T06:54:23.658Z,488.00
2018-11-11T06:55:23.881Z,476.00
2018-11-11T06:56:24.099Z,392.00
2018-11-11T06:57:24.326Z,308.00
2018-11-11T06:58:24.550Z,244.00
2018-11-11T06:59:24.776Z,236.00
2018-11-11T07:00:25.001Z,212.00
2018-11-11T07:01:25.232Z,204.00
2018-11-11T07:02:25.455Z,200.00
2018-11-11T07:03:25.683Z,188.00
2018-11-11T07:04:25.906Z,188.00
2018-11-11T07:05:26.131Z,192.00
2018-11-11T07:06:26.361Z,196.00
2018-11-11T07:07:26.632Z,212.00
2018-11-11T07:08:26.804Z,228.00
2018-11-11T07:09:27.027Z,244.00
2018-11-11T07:10:27.254Z,264.00
2018-11-11T07:11:27.480Z,280.00
2018-11-11T07:12:27.703Z,288.00
2018-11-11T07:13:27.933Z,296.00
2018-11-11T07:14:28.162Z,304.00
2018-11-11T07:15:28.390Z,328.00
2018-11-11T07:16:28.609Z,348.00
2018-11-11T07:17:28.838Z,364.00
2018-11-11T07:18:29.064Z,376.00
2018-11-11T07:19:29.291Z,368.00
2018-11-11T07:20:29.515Z,332.00
2018-11-11T07:21:29.740Z,288.00
2018-11-11T07:22:29.962Z,252.00
2018-11-11T07:23:30.192Z,236.00
2018-11-11T07:24:30.413Z,212.00
2018-11-11T07:25:30.641Z,192.00
2018-11-11T07:26:30.868Z,196.00
2018-11-11T07:27:31.092Z,196.00
2018-11-11T07:28:31.318Z,188.00
2018-11-11T07:29:31.536Z,184.00
2018-11-11T07:30:31.761Z,188.00
2018-11-11T07:31:31.998Z,192.00
2018-11-11T07:32:32.209Z,196.00
2018-11-11T07:33:32.438Z,196.00
2018-11-11T07:34:32.664Z,200.00
2018-11-11T07:35:32.892Z,208.00
2018-11-11T07:36:33.118Z,220.00
2018-11-11T07:37:33.337Z,228.00
2018-11-11T07:38:33.563Z,240.00
2018-11-11T07:39:33.788Z,248.00
2018-11-11T07:40:34.013Z,252.00
2018-11-11T07:41:34.238Z,260.00
2018-11-11T07:42:34.545Z,256.00
2018-11-11T07:43:34.689Z,256.00
2018-11-11T07:44:34.912Z,252.00
2018-11-11T07:45:35.139Z,268.00
2018-11-11T07:46:35.365Z,288.00
2018-11-11T07:47:35.585Z,308.00
2018-11-11T07:48:35.813Z,332.00
2018-11-11T07:49:36.039Z,356.00
2018-11-11T07:50:36.262Z,380.00
2018-11-11T07:51:36.488Z,404.00
2018-11-11T07:52:36.711Z,452.00
2018-11-11T07:53:36.940Z,508.00
2018-11-11T07:54:37.167Z,572.00
2018-11-11T07:55:37.392Z,620.00
2018-11-11T07:56:37.618Z,644.00
2018-11-11T07:57:37.840Z,644.00
2018-11-11T07:58:38.123Z,644.00
2018-11-11T07:59:38.294Z,632.00
2018-11-11T08:00:38.521Z,616.00
2018-11-11T08:01:38.824Z,608.00
2018-11-11T08:02:38.968Z,608.00
2018-11-11T08:03:39.193Z,608.00
2018-11-11T08:04:39.415Z,624.00
2018-11-11T08:05:39.640Z,700.00
2018-11-11T08:06:39.861Z,956.00
2018-11-11T08:07:40.089Z,1168.00
2018-11-11T08:08:40.315Z,1296.00
2018-11-11T08:09:40.538Z,1348.00
2018-11-11T08:10:40.764Z,1360.00
2018-11-11T08:11:40.987Z,1404.00
2018-11-11T08:12:41.214Z,1700.00
2018-11-11T08:13:41.448Z,2176.00
2018-11-11T08:14:41.665Z,2524.00
2018-11-11T08:15:41.889Z,2708.00
2018-11-11T08:16:42.176Z,2700.00
2018-11-11T08:17:42.339Z,2620.00
2018-11-11T08:18:42.568Z,2468.00
2018-11-11T08:19:42.792Z,2328.00
2018-11-11T08:20:43.036Z,2164.00
2018-11-11T08:21:43.244Z,2020.00
2018-11-11T08:22:43.466Z,1944.00
2018-11-11T08:23:43.687Z,1896.00
2018-11-11T08:24:43.919Z,1896.00
2018-11-11T08:25:44.139Z,1896.00
2018-11-11T08:26:44.368Z,1892.00
2018-11-11T08:27:44.592Z,1952.00
2018-11-11T08:28:44.821Z,2072.00
2018-11-11T08:29:45.048Z,2272.00
2018-11-11T08:30:45.271Z,2392.00
2018-11-11T08:31:45.499Z,2472.00
2018-11-11T08:32:45.734Z,2540.00
2018-11-11T08:33:45.952Z,2648.00
2018-11-11T08:34:46.181Z,2796.00
2018-11-11T08:35:46.407Z,3008.00
2018-11-11T08:36:46.632Z,3000.00
2018-11-11T08:37:46.860Z,3024.00
2018-11-11T08:38:47.089Z,3008.00
2018-11-11T08:39:47.314Z,2796.00
2018-11-11T08:40:47.541Z,2584.00
2018-11-11T08:41:47.768Z,2620.00
2018-11-11T08:42:47.998Z,2860.00
2018-11-11T08:43:48.217Z,3088.00
2018-11-11T08:44:48.446Z,3164.00
2018-11-11T08:45:48.670Z,3236.00
2018-11-11T08:46:48.898Z,3448.00
2018-11-11T08:47:49.121Z,3656.00
2018-11-11T08:48:49.348Z,3656.00
2018-11-11T08:49:49.573Z,3588.00
2018-11-11T08:50:49.799Z,3448.00
2018-11-11T08:51:50.021Z,3708.00
2018-11-11T08:52:50.242Z,3632.00
2018-11-11T08:53:50.471Z,3812.00
2018-11-11T08:54:50.702Z,3760.00
2018-11-11T08:55:50.930Z,3816.00
2018-11-11T08:56:51.156Z,3924.00
2018-11-11T08:57:51.406Z,4084.00
2018-11-11T08:58:51.612Z,4280.00
2018-11-11T08:59:51.834Z,4408.00
2018-11-11T09:00:52.059Z,4580.00
2018-11-11T09:01:52.287Z,4772.00
2018-11-11T09:02:52.510Z,4956.00
2018-11-11T09:03:52.738Z,5048.00
2018-11-11T09:04:53.013Z,5116.00
2018-11-11T09:05:53.185Z,5156.00
2018-11-11T09:06:53.412Z,5228.00
2018-11-11T09:07:53.638Z,5292.00
2018-11-11T09:08:53.870Z,5332.00
2018-11-11T09:09:54.093Z,5268.00
2018-11-11T09:10:54.319Z,5228.00
2018-11-11T09:11:54.548Z,5160.00
2018-11-11T09:12:54.770Z,5100.00
2018-11-11T09:13:54.997Z,5024.00
2018-11-11T09:14:55.220Z,4900.00
2018-11-11T09:15:55.447Z,5152.00
2018-11-11T09:16:55.672Z,5460.00
2018-11-11T09:17:55.894Z,6408.00
2018-11-11T09:18:56.120Z,6604.00
2018-11-11T09:19:56.347Z,6724.00
2018-11-11T09:20:56.577Z,6596.00
2018-11-11T09:21:56.796Z,6052.00
2018-11-11T09:22:57.021Z,6412.00
2018-11-11T09:23:57.249Z,6260.00
2018-11-11T09:24:57.474Z,6336.00
2018-11-11T09:25:57.702Z,5644.00
2018-11-11T09:26:57.918Z,5376.00
2018-11-11T09:27:58.164Z,5224.00
2018-11-11T09:28:58.411Z,5560.00
2018-11-11T09:29:58.592Z,5364.00
2018-11-11T09:30:58.817Z,5100.00
2018-11-11T09:31:59.044Z,5100.00
2018-11-11T09:32:59.270Z,5180.00
2018-11-11T09:33:59.499Z,5256.00
2018-11-11T09:34:59.810Z,5308.00
2018-11-11T09:35:59.946Z,5344.00
2018-11-11T09:37:00.176Z,5364.00
2018-11-11T09:38:00.401Z,5400.00
2018-11-11T09:39:00.661Z,5360.00
2018-11-11T09:40:00.864Z,5216.00
2018-11-11T09:41:01.090Z,4908.00
2018-11-11T09:42:01.316Z,4864.00
2018-11-11T09:43:01.585Z,4740.00
2018-11-11T09:44:01.763Z,4608.00
2018-11-11T09:45:01.999Z,4376.00
2018-11-11T09:46:02.213Z,4204.00
2018-11-11T09:47:02.437Z,4328.00
2018-11-11T09:48:02.815Z,5000.00
2018-11-11T09:49:02.896Z,5036.00
2018-11-11T09:50:03.121Z,5240.00
2018-11-11T09:51:03.352Z,5052.00
2018-11-11T09:52:03.582Z,5364.00
2018-11-11T09:53:03.807Z,4856.00
2018-11-11T09:54:04.095Z,4852.00
2018-11-11T09:55:04.259Z,5044.00
2018-11-11T09:56:04.482Z,4916.00
2018-11-11T09:57:04.710Z,4948.00
2018-11-11T09:58:04.937Z,5292.00
2018-11-11T09:59:05.164Z,5400.00
2018-11-11T10:00:05.389Z,5308.00
2018-11-11T10:01:05.621Z,5120.00
2018-11-11T10:02:05.846Z,4584.00
2018-11-11T10:03:06.075Z,4564.00
2018-11-11T10:04:06.298Z,4440.00
2018-11-11T10:05:06.525Z,4528.00
2018-11-11T10:06:06.747Z,4760.00
2018-11-11T10:07:07.036Z,5052.00
2018-11-11T10:08:07.200Z,5060.00
2018-11-11T10:09:07.429Z,5224.00
2018-11-11T10:10:07.683Z,5336.00
2018-11-11T10:11:07.883Z,5352.00
2018-11-11T10:12:08.103Z,6032.00
2018-11-11T10:13:08.330Z,5456.00
2018-11-11T10:14:08.557Z,5472.00
2018-11-11T10:15:08.798Z,6076.00
2018-11-11T10:16:09.021Z,5812.00
2018-11-11T10:17:09.243Z,6044.00
2018-11-11T10:18:09.483Z,5368.00
2018-11-11T10:19:09.713Z,5564.00
2018-11-11T10:20:09.946Z,5440.00
2018-11-11T10:21:10.168Z,5364.00
2018-11-11T10:22:10.406Z,5236.00
2018-11-11T10:23:10.635Z,4972.00
2018-11-11T10:24:10.863Z,5772.00
2018-11-11T10:25:11.580Z,5320.00
2018-11-11T10:26:11.358Z,5536.00
2018-11-11T10:27:11.630Z,5232.00
2018-11-11T10:28:11.809Z,5232.00
2018-11-11T10:29:12.123Z,5160.00
2018-11-11T10:30:12.272Z,5108.00
2018-11-11T10:31:12.495Z,4992.00
2018-11-11T10:32:12.719Z,5116.00
2018-11-11T10:33:12.943Z,5136.00
2018-11-11T10:34:13.172Z,5124.00
2018-11-11T10:35:13.399Z,5104.00
2018-11-11T10:36:13.624Z,5108.00
2018-11-11T10:37:13.859Z,5112.00
2018-11-11T10:38:14.082Z,5120.00
2018-11-11T10:39:14.345Z,5108.00
2018-11-11T10:40:14.538Z,5144.00
2018-11-11T10:41:14.766Z,5164.00
2018-11-11T10:42:14.994Z,4548.00
2018-11-11T10:43:15.220Z,5136.00
2018-11-11T10:44:15.502Z,5156.00
2018-11-11T10:45:15.677Z,5176.00
2018-11-11T10:46:15.933Z,5180.00
2018-11-11T10:47:16.172Z,5132.00
2018-11-11T10:48:16.402Z,5104.00
2018-11-11T10:49:16.640Z,5092.00
2018-11-11T10:50:16.865Z,5096.00
2018-11-11T10:51:17.094Z,5092.00
2018-11-11T10:52:17.320Z,5100.00
2018-11-11T10:53:17.547Z,5116.00
2018-11-11T10:54:17.829Z,5124.00
2018-11-11T10:55:17.999Z,5120.00
2018-11-11T10:56:18.226Z,5128.00
2018-11-11T10:57:18.451Z,5148.00
2018-11-11T10:58:18.675Z,5184.00
2018-11-11T10:59:18.908Z,5200.00
2018-11-11T11:00:19.172Z,5180.00
2018-11-11T11:01:19.361Z,5168.00
2018-11-11T11:02:19.589Z,5188.00
2018-11-11T11:03:19.816Z,5224.00
2018-11-11T11:04:20.043Z,5252.00
2018-11-11T11:05:20.272Z,5304.00
2018-11-11T11:06:20.494Z,5340.00
2018-11-11T11:07:20.719Z,5212.00
2018-11-11T11:08:20.946Z,5556.00
2018-11-11T11:09:21.174Z,5512.00
2018-11-11T11:10:21.402Z,5716.00
2018-11-11T11:11:21.637Z,5688.00
2018-11-11T11:12:21.866Z,5812.00
2018-11-11T11:13:22.164Z,6388.00
2018-11-11T11:14:22.316Z,6632.00
2018-11-11T11:15:22.542Z,6744.00
2018-11-11T11:16:22.787Z,6540.00
2018-11-11T11:17:23.001Z,6428.00
2018-11-11T11:18:23.231Z,6732.00
2018-11-11T11:19:23.458Z,6672.00
2018-11-11T11:20:23.684Z,6820.00
2018-11-11T11:21:23.913Z,7080.00
2018-11-11T11:22:24.142Z,6932.00
2018-11-11T11:23:24.369Z,6800.00
2018-11-11T11:24:24.593Z,6556.00
2018-11-11T11:25:24.842Z,5816.00
2018-11-11T11:26:25.051Z,6312.00
2018-11-11T11:27:25.293Z,5760.00
2018-11-11T11:28:25.507Z,6012.00
2018-11-11T11:29:25.732Z,5940.00
2018-11-11T11:30:25.960Z,5556.00
2018-11-11T11:31:26.222Z,5464.00
2018-11-11T11:32:26.428Z,5388.00
2018-11-11T11:33:26.652Z,5788.00
2018-11-11T11:34:26.874Z,5784.00
2018-11-11T11:35:27.126Z,5604.00
2018-11-11T11:36:27.337Z,5628.00
2018-11-11T11:37:27.565Z,5420.00
2018-11-11T11:38:27.863Z,5412.00
2018-11-11T11:39:28.017Z,5488.00
2018-11-11T11:40:28.246Z,5404.00
2018-11-11T11:41:28.523Z,5040.00
2018-11-11T11:42:28.702Z,4848.00
2018-11-11T11:43:28.932Z,4708.00
2018-11-11T11:44:29.158Z,4452.00
2018-11-11T11:45:29.387Z,4320.00
2018-11-11T11:46:29.615Z,3896.00
2018-11-11T11:47:29.881Z,3604.00
2018-11-11T11:48:30.071Z,3324.00
2018-11-11T11:49:30.300Z,3304.00
2018-11-11T11:50:30.600Z,3020.00
2018-11-11T11:51:30.784Z,2660.00
2018-11-11T11:52:31.046Z,2632.00
2018-11-11T11:53:31.237Z,2436.00
2018-11-11T11:54:31.464Z,2544.00
2018-11-11T11:55:31.704Z,2988.00
2018-11-11T11:56:31.931Z,3436.00
2018-11-11T11:57:32.169Z,3772.00
2018-11-11T11:58:32.401Z,5108.00
2018-11-11T11:59:32.631Z,4636.00
2018-11-11T12:00:32.863Z,4428.00
2018-11-11T12:01:33.090Z,4084.00
2018-11-11T12:02:33.315Z,3888.00
2018-11-11T12:03:33.546Z,3608.00
2018-11-11T12:04:33.776Z,3068.00
2018-11-11T12:05:34.009Z,2696.00
2018-11-11T12:06:34.288Z,2732.00
2018-11-11T12:07:34.519Z,2864.00
2018-11-11T12:08:34.781Z,2736.00
2018-11-11T12:09:34.999Z,2692.00
2018-11-11T12:10:35.225Z,2700.00
2018-11-11T12:11:35.451Z,2840.00
2018-11-11T12:12:35.682Z,2916.00
2018-11-11T12:13:35.907Z,3076.00
2018-11-11T12:14:36.141Z,2960.00
2018-11-11T12:15:36.377Z,2652.00
2018-11-11T12:16:36.626Z,2468.00
2018-11-11T12:17:36.833Z,2244.00
2018-11-11T12:18:37.064Z,2100.00
2018-11-11T12:19:37.289Z,2216.00
2018-11-11T12:20:37.518Z,2500.00
2018-11-11T12:21:37.747Z,2676.00
2018-11-11T12:22:37.971Z,2828.00
2018-11-11T12:23:38.210Z,2984.00
2018-11-11T12:24:38.492Z,2992.00
2018-11-11T12:25:38.665Z,3040.00
2018-11-11T12:26:38.895Z,2800.00
2018-11-11T12:27:39.124Z,3212.00
2018-11-11T12:28:39.344Z,3608.00
2018-11-11T12:29:39.579Z,3168.00
2018-11-11T12:30:39.823Z,3224.00
2018-11-11T12:31:40.041Z,3056.00
2018-11-11T12:32:40.262Z,3028.00
2018-11-11T12:33:40.490Z,3080.00
2018-11-11T12:34:40.716Z,2760.00
2018-11-11T12:35:40.944Z,2688.00
2018-11-11T12:36:41.170Z,2772.00
2018-11-11T12:37:41.399Z,2996.00
2018-11-11T12:38:41.625Z,2716.00
2018-11-11T12:39:41.901Z,2424.00
2018-11-11T12:40:42.088Z,2244.00
2018-11-11T12:41:42.316Z,1936.00
2018-11-11T12:42:42.542Z,1652.00
2018-11-11T12:43:42.774Z,1448.00
2018-11-11T12:44:43.016Z,1400.00
2018-11-11T12:45:43.228Z,1548.00
2018-11-11T12:46:43.467Z,1380.00